N772QR KCQF-54J
Flight info
| Callsign | N772QR |
|---|---|
| Flight time | N/A |
| Altitude | 9500 |
| Route | CEW |
| Aircraft | TBM9/L-VGDW/C |
Departure
| Time | 2026-04-18 02:24 |
|---|---|
| Airport | H L Sonny Callahan Airport (KCQF) |
Arrival
| Time | N/A |
|---|---|
| Airport | 54J |
| Time | Latitude | Longitude | Altitude | Speed | Heading |
|---|---|---|---|---|---|
| 2026-04-18 02:19 | 30.46792 | -87.87801 | 96 ft | 0 kts | 277° |
| 2026-04-18 02:22 | 30.46794 | -87.87805 | 96 ft | 3 kts | 310° |
| 2026-04-18 02:22 | 30.46821 | -87.87776 | 95 ft | 8 kts | 29° |
| 2026-04-18 02:23 | 30.46914 | -87.87740 | 95 ft | 18 kts | 16° |
| 2026-04-18 02:23 | 30.46957 | -87.87628 | 95 ft | 19 kts | 100° |
| 2026-04-18 02:23 | 30.46876 | -87.87547 | 95 ft | 23 kts | 188° |
| 2026-04-18 02:23 | 30.46541 | -87.87612 | 98 ft | 79 kts | 189° |
| 2026-04-18 02:24 | 30.45837 | -87.87738 | 321 ft | 111 kts | 188° |
| 2026-04-18 02:24 | 30.45038 | -87.87871 | 745 ft | 129 kts | 190° |
| 2026-04-18 02:24 | 30.44234 | -87.87596 | 1432 ft | 127 kts | 134° |
| 2026-04-18 02:24 | 30.44113 | -87.86602 | 2059 ft | 135 kts | 74° |
| 2026-04-18 02:25 | 30.44474 | -87.85608 | 2678 ft | 134 kts | 74° |
| 2026-04-18 02:25 | 30.44805 | -87.84525 | 3090 ft | 146 kts | 74° |
| 2026-04-18 02:25 | 30.45161 | -87.83452 | 3786 ft | 141 kts | 73° |
| 2026-04-18 02:25 | 30.45516 | -87.82375 | 4405 ft | 143 kts | 73° |
| 2026-04-18 02:26 | 30.45872 | -87.81302 | 5094 ft | 144 kts | 74° |
| 2026-04-18 02:26 | 30.46233 | -87.80200 | 5658 ft | 148 kts | 73° |
| 2026-04-18 02:26 | 30.46610 | -87.79064 | 6207 ft | 153 kts | 74° |
| 2026-04-18 02:26 | 30.46976 | -87.77905 | 6747 ft | 155 kts | 77° |
| 2026-04-18 02:27 | 30.47304 | -87.76697 | 7298 ft | 157 kts | 77° |
| 2026-04-18 02:27 | 30.47644 | -87.75483 | 7866 ft | 159 kts | 75° |
| 2026-04-18 02:27 | 30.47991 | -87.74252 | 8425 ft | 162 kts | 75° |
| 2026-04-18 02:27 | 30.48347 | -87.73007 | 9006 ft | 163 kts | 74° |
| 2026-04-18 02:28 | 30.48706 | -87.71738 | 9482 ft | 174 kts | 74° |
| 2026-04-18 02:28 | 30.49112 | -87.70272 | 9503 ft | 206 kts | 74° |
| 2026-04-18 02:28 | 30.49574 | -87.68610 | 9507 ft | 229 kts | 74° |
| 2026-04-18 02:28 | 30.50082 | -87.66798 | 9503 ft | 243 kts | 73° |
| 2026-04-18 02:29 | 30.50624 | -87.64894 | 9503 ft | 253 kts | 73° |
| 2026-04-18 02:29 | 30.51187 | -87.62915 | 9503 ft | 258 kts | 73° |
| 2026-04-18 02:29 | 30.51750 | -87.60922 | 9500 ft | 261 kts | 73° |
| 2026-04-18 02:29 | 30.52318 | -87.58921 | 9498 ft | 263 kts | 73° |
| 2026-04-18 02:30 | 30.52885 | -87.56914 | 9498 ft | 264 kts | 73° |
| 2026-04-18 02:30 | 30.53459 | -87.54881 | 9496 ft | 265 kts | 73° |
| 2026-04-18 02:30 | 30.54031 | -87.52860 | 9494 ft | 265 kts | 73° |
| 2026-04-18 02:30 | 30.54604 | -87.50841 | 9485 ft | 264 kts | 73° |
| 2026-04-18 02:31 | 30.55150 | -87.48895 | 9488 ft | 264 kts | 73° |
| 2026-04-18 02:31 | 30.55736 | -87.46818 | 9483 ft | 264 kts | 73° |
| 2026-04-18 02:31 | 30.56300 | -87.44815 | 9480 ft | 264 kts | 73° |
| 2026-04-18 02:31 | 30.56867 | -87.42801 | 9477 ft | 264 kts | 73° |
| 2026-04-18 02:32 | 30.57437 | -87.40778 | 9477 ft | 264 kts | 73° |
| 2026-04-18 02:32 | 30.58008 | -87.38738 | 9476 ft | 264 kts | 73° |
| 2026-04-18 02:32 | 30.58581 | -87.36709 | 9474 ft | 264 kts | 73° |
| 2026-04-18 02:32 | 30.59152 | -87.34678 | 9473 ft | 264 kts | 73° |
| 2026-04-18 02:33 | 30.59718 | -87.32653 | 9474 ft | 264 kts | 73° |
| 2026-04-18 02:33 | 30.60285 | -87.30634 | 9475 ft | 264 kts | 73° |
| 2026-04-18 02:33 | 30.60852 | -87.28613 | 9472 ft | 264 kts | 73° |
| 2026-04-18 02:33 | 30.61424 | -87.26568 | 9473 ft | 264 kts | 73° |
| 2026-04-18 02:34 | 30.61983 | -87.24572 | 9473 ft | 264 kts | 73° |
| 2026-04-18 02:34 | 30.62554 | -87.22526 | 9473 ft | 264 kts | 73° |
| 2026-04-18 02:34 | 30.63118 | -87.20510 | 9472 ft | 263 kts | 73° |
| 2026-04-18 02:34 | 30.63682 | -87.18490 | 9479 ft | 264 kts | 73° |
| 2026-04-18 02:35 | 30.64249 | -87.16460 | 9480 ft | 264 kts | 73° |
| 2026-04-18 02:35 | 30.64812 | -87.14441 | 9482 ft | 264 kts | 73° |
| 2026-04-18 02:35 | 30.65380 | -87.12408 | 9489 ft | 264 kts | 72° |
| 2026-04-18 02:35 | 30.65942 | -87.10391 | 9489 ft | 264 kts | 73° |
| 2026-04-18 02:36 | 30.66504 | -87.08357 | 9487 ft | 264 kts | 73° |
| 2026-04-18 02:36 | 30.67070 | -87.06327 | 9487 ft | 264 kts | 72° |
| 2026-04-18 02:36 | 30.67631 | -87.04313 | 9487 ft | 264 kts | 72° |
| 2026-04-18 02:36 | 30.68198 | -87.02271 | 9490 ft | 264 kts | 73° |
| 2026-04-18 02:37 | 30.68756 | -87.00262 | 9489 ft | 264 kts | 73° |
| 2026-04-18 02:37 | 30.69323 | -86.98216 | 9488 ft | 264 kts | 72° |
| 2026-04-18 02:37 | 30.69886 | -86.96188 | 9486 ft | 264 kts | 73° |
| 2026-04-18 02:37 | 30.70443 | -86.94173 | 9490 ft | 264 kts | 72° |
| 2026-04-18 02:38 | 30.71003 | -86.92150 | 9486 ft | 264 kts | 72° |
| 2026-04-18 02:38 | 30.71564 | -86.90122 | 9488 ft | 264 kts | 72° |
| 2026-04-18 02:38 | 30.72129 | -86.88079 | 9484 ft | 264 kts | 72° |
| 2026-04-18 02:38 | 30.72688 | -86.86059 | 9486 ft | 264 kts | 72° |
| 2026-04-18 02:39 | 30.73245 | -86.84040 | 9480 ft | 263 kts | 72° |
| 2026-04-18 02:39 | 30.73801 | -86.82021 | 9480 ft | 263 kts | 72° |
| 2026-04-18 02:39 | 30.74366 | -86.79976 | 9482 ft | 263 kts | 72° |
| 2026-04-18 02:39 | 30.74920 | -86.77961 | 9476 ft | 263 kts | 72° |
| 2026-04-18 02:40 | 30.75480 | -86.75924 | 9283 ft | 269 kts | 72° |
| 2026-04-18 02:40 | 30.76058 | -86.73802 | 8947 ft | 276 kts | 73° |
| 2026-04-18 02:40 | 30.76637 | -86.71677 | 8589 ft | 280 kts | 73° |
| 2026-04-18 02:40 | 30.77233 | -86.69495 | 8218 ft | 281 kts | 73° |
| 2026-04-18 02:41 | 30.77832 | -86.67339 | 7849 ft | 281 kts | 73° |
| 2026-04-18 02:41 | 30.78430 | -86.65179 | 7480 ft | 281 kts | 73° |
| 2026-04-18 02:41 | 30.79019 | -86.63020 | 7116 ft | 280 kts | 74° |
| 2026-04-18 02:41 | 30.79604 | -86.60875 | 6747 ft | 279 kts | 74° |
| 2026-04-18 02:42 | 30.80203 | -86.58707 | 6368 ft | 278 kts | 74° |
| 2026-04-18 02:42 | 30.80782 | -86.56576 | 5989 ft | 277 kts | 74° |
| 2026-04-18 02:42 | 30.81354 | -86.54462 | 5616 ft | 273 kts | 74° |
| 2026-04-18 02:42 | 30.81872 | -86.52337 | 5252 ft | 269 kts | 81° |
| 2026-04-18 02:43 | 30.81924 | -86.50201 | 4908 ft | 266 kts | 96° |
| 2026-04-18 02:43 | 30.81553 | -86.48122 | 4544 ft | 263 kts | 106° |
| 2026-04-18 02:43 | 30.81076 | -86.46062 | 4190 ft | 261 kts | 104° |
| 2026-04-18 02:43 | 30.80646 | -86.44023 | 3842 ft | 260 kts | 105° |
| 2026-04-18 02:44 | 30.80187 | -86.41986 | 3494 ft | 260 kts | 106° |
| 2026-04-18 02:44 | 30.79723 | -86.39975 | 3152 ft | 259 kts | 106° |
| 2026-04-18 02:44 | 30.79202 | -86.37978 | 2982 ft | 250 kts | 112° |
| 2026-04-18 02:44 | 30.78581 | -86.36131 | 2866 ft | 243 kts | 112° |
| 2026-04-18 02:45 | 30.77995 | -86.34316 | 2730 ft | 238 kts | 112° |
| 2026-04-18 02:45 | 30.77415 | -86.32532 | 2587 ft | 236 kts | 112° |
| 2026-04-18 02:45 | 30.76822 | -86.30742 | 2442 ft | 237 kts | 113° |
| 2026-04-18 02:45 | 30.76232 | -86.28956 | 2282 ft | 236 kts | 114° |
| 2026-04-18 02:46 | 30.75652 | -86.27178 | 2110 ft | 238 kts | 114° |
| 2026-04-18 02:46 | 30.75148 | -86.25338 | 1853 ft | 241 kts | 108° |
| 2026-04-18 02:46 | 30.74767 | -86.23577 | 1565 ft | 213 kts | 108° |
| 2026-04-18 02:46 | 30.74410 | -86.21985 | 1291 ft | 191 kts | 108° |
| 2026-04-18 02:47 | 30.74082 | -86.20575 | 1054 ft | 169 kts | 108° |
| 2026-04-18 02:47 | 30.73802 | -86.19358 | 845 ft | 144 kts | 108° |
| 2026-04-18 02:47 | 30.73559 | -86.18298 | 659 ft | 130 kts | 108° |
| 2026-04-18 02:47 | 30.73352 | -86.17373 | 508 ft | 99 kts | 108° |
| 2026-04-18 02:48 | 30.73265 | -86.16616 | 377 ft | 95 kts | 90° |
| 2026-04-18 02:48 | 30.73262 | -86.15869 | 293 ft | 84 kts | 91° |
| 2026-04-18 02:48 | 30.73260 | -86.15296 | 290 ft | 60 kts | 89° |
| 2026-04-18 02:48 | 30.73267 | -86.15031 | 287 ft | 15 kts | 63° |
| 2026-04-18 02:49 | 30.73333 | -86.14939 | 288 ft | 10 kts | 49° |
| 2026-04-18 02:49 | 30.73334 | -86.14919 | 288 ft | 0 kts | 124° |